Decoded Metar for KBIX (BILOXI in MS, USA) (IATA:BIX) | Meteo·Mobile Aviation Weather
aviador You're here:

KBIX Decoded Metar

BILOXI in MS, USA
Report Time2018-10-22 21:56:00
UTC Time2018-10-22 22:38:02
Flight Rules vfr VFR
Wind150° at 06 kt
W.Decomp.*RWY 21: 2.9 kt HW 5.2 kt LCW
W.Rank150° ranks 5
Current wind is below 150° avg. (8.0)
Visibility9999 m
Phenomena:N/A
Clouds:Scattered 180 Hf
Expected CloudBase > 2,400 ft AGL from Temp-Dew spread
CeilingNone
Temp24°C (ISA +9)
Dew Point18°C (69% RH)
QNH1020 hPa
Density Alt1,122 ft
Elevation33 ft
Report Wrong Elevation
Raw Report
KBIX 222156Z AUTO 15006KT 10SM SCT180 24/18 A3012 RMK AO2 SLP203
T02350175=

Extra information for KBIX:More info

Metar Taf Metar & Taf Last 4 Metars F.Rules Stats Wind Profile Meteogram Temp Stats Airport Information Weather charts Add Link Nearby VenuesMetar ALERT Operation Metar Decoded Social comments

AIRNAV info for KBIX